createdAt,value
2022-08-05T00:01:36.176Z,1.88
2022-08-05T00:04:17.987Z,2.17
2022-08-05T00:06:47.009Z,2.60
2022-08-05T00:09:15.983Z,2.67
2022-08-05T00:11:48.383Z,2.15
2022-08-05T00:14:17.464Z,2.30
2022-08-05T00:16:53.075Z,2.00
2022-08-05T00:19:33.264Z,2.17
2022-08-05T00:22:02.424Z,3.17
2022-08-05T00:24:30.751Z,2.63
2022-08-05T00:26:59.811Z,2.60
2022-08-05T00:29:37.737Z,2.70
2022-08-05T00:32:12.180Z,2.53
2022-08-05T00:35:05.603Z,2.50
2022-08-05T00:37:35.915Z,2.13
2022-08-05T00:40:26.672Z,2.20
2022-08-05T00:42:58.388Z,2.33
2022-08-05T00:45:38.092Z,2.40
2022-08-05T00:48:09.358Z,2.15
2022-08-05T00:50:38.731Z,2.70
2022-08-05T00:53:09.806Z,2.50
2022-08-05T00:55:55.440Z,2.22
2022-08-05T00:58:22.304Z,1.88
2022-08-05T01:00:54.624Z,2.30
2022-08-05T01:03:22.612Z,2.60
2022-08-05T01:05:51.901Z,2.50
2022-08-05T01:08:42.232Z,2.58
2022-08-05T01:11:21.740Z,2.70
2022-08-05T01:14:04.108Z,3.28
2022-08-05T01:16:53.423Z,2.95
2022-08-05T01:20:01.746Z,3.10
2022-08-05T01:22:43.043Z,2.88
2022-08-05T01:25:39.632Z,3.33
2022-08-05T01:28:36.974Z,3.40
2022-08-05T01:31:27.667Z,3.85
2022-08-05T01:34:07.505Z,3.20
2022-08-05T01:37:24.459Z,3.08
2022-08-05T01:39:54.868Z,3.20
2022-08-05T01:42:29.011Z,3.67
2022-08-05T01:45:02.336Z,3.75
2022-08-05T01:47:39.344Z,3.67
2022-08-05T01:50:18.677Z,3.75
2022-08-05T01:53:06.573Z,3.65
2022-08-05T01:55:36.669Z,3.80
2022-08-05T01:58:15.467Z,4.03
2022-08-05T02:00:50.182Z,4.38
2022-08-05T02:03:31.485Z,3.70
2022-08-05T02:06:03.461Z,3.70
2022-08-05T02:08:58.294Z,4.20
2022-08-05T02:11:37.491Z,3.63
2022-08-05T02:14:13.168Z,3.88
2022-08-05T02:16:52.299Z,3.90
2022-08-05T02:19:35.733Z,3.45
2022-08-05T02:22:26.535Z,3.90
2022-08-05T02:25:04.028Z,3.92
2022-08-05T02:27:58.272Z,4.05
2022-08-05T02:30:37.267Z,3.97
2022-08-05T02:33:35.770Z,3.40
2022-08-05T02:36:10.365Z,4.05
2022-08-05T02:38:53.268Z,3.83
2022-08-05T02:41:28.678Z,3.97
2022-08-05T02:44:13.334Z,4.25
2022-08-05T02:46:58.753Z,4.35
2022-08-05T02:49:36.375Z,4.15
2022-08-05T02:52:11.595Z,4.28
2022-08-05T02:54:50.675Z,3.60
2022-08-05T02:58:10.839Z,3.80
2022-08-05T03:00:11.806Z,4.03
2022-08-05T03:02:42.899Z,3.83
2022-08-05T03:05:15.538Z,4.10
2022-08-05T03:08:06.847Z,4.45
2022-08-05T03:10:35.748Z,4.60
2022-08-05T03:13:16.838Z,4.15
2022-08-05T03:15:47.824Z,4.63
2022-08-05T03:18:17.463Z,4.40
2022-08-05T03:20:48.904Z,4.07
2022-08-05T03:23:18.124Z,4.72
2022-08-05T03:26:03.809Z,4.68
2022-08-05T03:28:33.542Z,4.15
2022-08-05T03:31:02.791Z,4.40
2022-08-05T03:33:42.173Z,4.95
2022-08-05T03:36:29.796Z,3.90
2022-08-05T03:38:58.401Z,5.22
2022-08-05T03:41:25.876Z,4.55
2022-08-05T03:44:11.389Z,5.47
2022-08-05T03:46:39.116Z,4.82
2022-08-05T03:49:06.739Z,5.03
2022-08-05T03:52:38.250Z,5.70
2022-08-05T03:55:06.940Z,4.53
2022-08-05T03:57:53.226Z,4.85
2022-08-05T04:00:26.539Z,5.22
2022-08-05T04:02:58.678Z,5.57
2022-08-05T04:05:35.629Z,5.88
2022-08-05T04:08:14.541Z,5.05
2022-08-05T04:10:59.284Z,5.70
2022-08-05T04:13:50.354Z,6.45
2022-08-05T04:16:14.904Z,6.00
2022-08-05T04:18:44.790Z,5.53
2022-08-05T04:22:05.180Z,6.03
2022-08-05T04:24:06.504Z,5.55
2022-08-05T04:26:34.482Z,5.97
2022-08-05T04:29:07.070Z,6.32
2022-08-05T04:31:39.451Z,5.97
2022-08-05T04:34:24.495Z,6.00
2022-08-05T04:36:53.523Z,6.22
2022-08-05T04:39:21.232Z,5.93
2022-08-05T04:41:51.017Z,6.30
2022-08-05T04:44:21.545Z,6.07
2022-08-05T04:46:59.347Z,6.85
2022-08-05T04:49:38.608Z,5.78
2022-08-05T04:52:15.491Z,6.05
2022-08-05T04:54:42.533Z,6.13
2022-08-05T04:57:09.461Z,5.07
2022-08-05T04:59:38.561Z,6.15
2022-08-05T05:02:36.818Z,5.50
2022-08-05T05:05:02.743Z,6.10
2022-08-05T05:07:32.140Z,5.47
2022-08-05T05:10:04.280Z,5.10
2022-08-05T05:12:31.643Z,5.82
2022-08-05T05:14:58.649Z,5.88
2022-08-05T05:17:55.853Z,5.05
2022-08-05T05:20:14.150Z,5.22
2022-08-05T05:22:44.127Z,5.45
2022-08-05T05:25:40.623Z,5.30
2022-08-05T05:32:12.506Z,5.47
2022-08-05T05:34:42.917Z,5.60
2022-08-05T05:37:15.011Z,5.47
2022-08-05T05:39:43.531Z,5.65
2022-08-05T05:42:12.593Z,5.05
2022-08-05T05:44:48.538Z,4.85
2022-08-05T05:47:21.653Z,5.05
2022-08-05T05:49:52.470Z,5.18
2022-08-05T05:52:30.002Z,5.35
2022-08-05T05:55:13.380Z,5.20
2022-08-05T05:57:52.089Z,4.97
2022-08-05T06:00:22.025Z,5.13
2022-08-05T06:02:58.600Z,4.95
2022-08-05T06:05:26.547Z,4.95
2022-08-05T06:08:01.205Z,4.93
2022-08-05T06:10:29.553Z,4.35
2022-08-05T06:13:04.927Z,4.75
2022-08-05T06:16:30.697Z,4.38
2022-08-05T06:18:19.750Z,4.30
2022-08-05T06:20:58.598Z,3.85
2022-08-05T06:23:25.464Z,4.38
2022-08-05T06:26:13.670Z,4.03
2022-08-05T06:28:46.218Z,3.92
2022-08-05T06:31:18.228Z,4.93
2022-08-05T06:34:07.319Z,4.35
2022-08-05T06:36:56.692Z,3.85
2022-08-05T06:39:24.505Z,4.05
2022-08-05T06:41:51.575Z,3.80
2022-08-05T06:44:19.295Z,3.78
2022-08-05T06:46:51.084Z,3.95
2022-08-05T06:49:18.925Z,3.60
2022-08-05T06:51:48.716Z,3.13
2022-08-05T06:54:18.129Z,3.40
2022-08-05T06:56:54.889Z,3.58
2022-08-05T06:59:38.597Z,3.92
2022-08-05T07:02:10.328Z,3.42
2022-08-05T07:04:37.311Z,3.10
2022-08-05T07:07:07.845Z,3.25
2022-08-05T07:09:37.475Z,2.80
2022-08-05T07:12:08.369Z,3.40
2022-08-05T07:14:54.155Z,2.90
2022-08-05T07:18:00.822Z,3.17
2022-08-05T07:20:32.181Z,3.03
2022-08-05T07:22:55.466Z,2.97
2022-08-05T07:25:56.263Z,2.83
2022-08-05T07:28:11.692Z,3.17
2022-08-05T07:30:44.338Z,3.65
2022-08-05T07:33:17.457Z,2.75
2022-08-05T07:36:03.728Z,2.60
2022-08-05T07:38:43.383Z,2.55
2022-08-05T07:42:14.448Z,2.50
2022-08-05T07:44:14.274Z,2.50
2022-08-05T07:46:48.472Z,2.70
2022-08-05T07:49:18.291Z,2.53
2022-08-05T07:51:53.751Z,3.20
2022-08-05T07:54:31.130Z,2.60
2022-08-05T07:57:17.662Z,2.13
2022-08-05T07:59:49.920Z,2.58
2022-08-05T08:02:18.006Z,2.10
2022-08-05T08:04:49.439Z,2.28
2022-08-05T08:07:22.704Z,2.50
2022-08-05T08:09:52.392Z,2.15
2022-08-05T08:12:37.490Z,2.60
2022-08-05T08:15:15.233Z,2.25
2022-08-05T08:17:52.732Z,2.10
2022-08-05T08:20:43.279Z,2.40
2022-08-05T08:23:59.809Z,2.42
2022-08-05T08:26:00.015Z,1.70
2022-08-05T08:28:35.605Z,2.15
2022-08-05T08:31:07.762Z,2.47
2022-08-05T08:33:37.631Z,2.85
2022-08-05T08:38:55.795Z,2.63
2022-08-05T08:41:52.310Z,2.30
2022-08-05T08:45:23.434Z,2.40
2022-08-05T08:47:22.334Z,2.33
2022-08-05T08:50:13.120Z,2.30
2022-08-05T08:52:56.710Z,2.65
2022-08-05T08:56:02.462Z,2.40
2022-08-05T08:58:14.931Z,2.28
2022-08-05T09:00:42.858Z,2.42
2022-08-05T09:03:16.095Z,2.45
2022-08-05T09:06:08.736Z,2.65
2022-08-05T09:08:34.780Z,2.45
2022-08-05T09:11:01.769Z,2.80
2022-08-05T09:13:31.959Z,2.30
2022-08-05T09:16:16.888Z,2.40
2022-08-05T09:18:44.434Z,2.38
2022-08-05T09:21:11.693Z,2.58
2022-08-05T09:24:03.213Z,2.15
2022-08-05T09:26:33.709Z,2.25
2022-08-05T09:29:08.762Z,2.33
2022-08-05T09:32:40.631Z,2.30
2022-08-05T09:34:26.014Z,2.30
2022-08-05T09:36:55.974Z,2.80
2022-08-05T09:39:39.137Z,2.60
2022-08-05T09:42:27.918Z,2.70
2022-08-05T09:45:03.184Z,2.28
2022-08-05T09:47:55.699Z,2.15
2022-08-05T09:50:44.096Z,1.95
2022-08-05T09:53:23.055Z,1.95
2022-08-05T09:56:12.624Z,1.85
2022-08-05T09:58:42.026Z,1.95
2022-08-05T10:01:14.929Z,1.83
2022-08-05T10:04:04.513Z,1.83
2022-08-05T10:06:55.049Z,1.70
2022-08-05T10:09:29.285Z,1.70
2022-08-05T10:12:30.693Z,1.77
2022-08-05T10:15:20.321Z,1.42
2022-08-05T10:18:17.471Z,1.60
2022-08-05T10:20:56.469Z,1.70
2022-08-05T10:23:55.829Z,1.58
2022-08-05T10:26:16.557Z,1.55
2022-08-05T10:28:46.587Z,1.70
2022-08-05T10:32:48.445Z,1.73
2022-08-05T10:34:07.874Z,1.40
2022-08-05T10:36:41.143Z,1.50
2022-08-05T10:39:59.214Z,1.30
2022-08-05T10:42:33.825Z,1.60
2022-08-05T10:45:20.891Z,1.50
2022-08-05T10:48:31.333Z,1.80
2022-08-05T10:51:00.155Z,2.00
2022-08-05T10:53:39.255Z,1.42
2022-08-05T10:56:31.073Z,1.73
2022-08-05T10:59:11.409Z,2.45
2022-08-05T11:01:55.290Z,2.50
2022-08-05T11:04:31.860Z,2.40
2022-08-05T11:07:11.828Z,2.40
2022-08-05T11:09:47.855Z,2.28
2022-08-05T11:12:45.313Z,2.22
2022-08-05T11:15:59.338Z,2.30
2022-08-05T11:18:32.749Z,2.10
2022-08-05T11:21:06.217Z,2.40
2022-08-05T11:24:04.239Z,2.05
2022-08-05T11:26:43.191Z,2.25
2022-08-05T11:29:37.209Z,2.08
2022-08-05T11:32:28.524Z,2.10
2022-08-05T11:34:57.410Z,2.13
2022-08-05T11:38:28.673Z,1.98
2022-08-05T11:41:35.334Z,2.15
2022-08-05T11:44:05.531Z,2.00
2022-08-05T11:46:58.233Z,2.53
2022-08-05T11:49:25.842Z,2.33
2022-08-05T11:51:57.616Z,1.80
2022-08-05T11:54:34.854Z,2.08
2022-08-05T11:57:08.575Z,1.95
2022-08-05T11:59:51.817Z,1.92
2022-08-05T12:02:31.999Z,1.90
2022-08-05T12:05:07.055Z,1.50
2022-08-05T12:08:03.263Z,1.95
2022-08-05T12:10:38.459Z,1.35
2022-08-05T12:13:27.867Z,1.90
2022-08-05T12:16:20.224Z,1.45
2022-08-05T12:18:53.475Z,1.73
2022-08-05T12:21:30.301Z,1.70
2022-08-05T12:24:14.221Z,2.25
2022-08-05T12:26:45.650Z,1.75
2022-08-05T12:29:22.898Z,2.10
2022-08-05T12:31:56.127Z,1.65
2022-08-05T12:34:36.947Z,1.92
2022-08-05T12:37:17.113Z,2.35
2022-08-05T12:39:51.172Z,1.92
2022-08-05T12:42:21.109Z,1.90
2022-08-05T12:44:49.066Z,1.50
2022-08-05T12:47:31.062Z,1.35
2022-08-05T12:50:03.896Z,1.08
2022-08-05T12:52:41.796Z,1.10
2022-08-05T12:55:25.426Z,1.00
2022-08-05T12:58:49.000Z,0.80
2022-08-05T13:02:01.666Z,0.65
2022-08-05T13:03:42.128Z,0.57
2022-08-05T13:06:16.695Z,0.73
2022-08-05T13:08:50.794Z,0.70
2022-08-05T13:12:01.781Z,0.68
2022-08-05T13:14:20.275Z,0.70
2022-08-05T13:16:57.268Z,0.90
2022-08-05T13:19:51.055Z,0.90
2022-08-05T13:22:27.708Z,0.75
2022-08-05T13:25:05.104Z,0.68
2022-08-05T13:27:42.852Z,0.63
2022-08-05T13:30:34.255Z,0.73
2022-08-05T13:33:02.135Z,0.40
2022-08-05T13:35:42.620Z,0.50
2022-08-05T13:38:15.763Z,0.65
2022-08-05T13:40:55.508Z,0.60
2022-08-05T13:43:22.496Z,0.50
2022-08-05T13:45:50.715Z,0.50
2022-08-05T13:48:58.547Z,0.70
2022-08-05T13:51:13.966Z,0.50
2022-08-05T13:53:47.922Z,0.60
2022-08-05T13:56:18.494Z,0.40
2022-08-05T13:58:53.107Z,0.52
2022-08-05T14:01:36.248Z,0.63
2022-08-05T14:04:29.269Z,0.32
2022-08-05T14:06:58.713Z,0.50
2022-08-05T14:09:42.994Z,0.43
2022-08-05T14:12:18.165Z,0.60
2022-08-05T14:14:59.183Z,0.32
2022-08-05T14:17:28.359Z,0.47
2022-08-05T14:19:59.668Z,0.43
2022-08-05T14:22:30.516Z,0.55
2022-08-05T14:25:02.222Z,0.40
2022-08-05T14:27:33.468Z,0.50
2022-08-05T14:30:20.306Z,0.60
2022-08-05T14:32:48.989Z,0.47
2022-08-05T14:35:16.249Z,0.40
2022-08-05T14:37:52.110Z,0.40
2022-08-05T14:40:20.482Z,0.40
2022-08-05T14:42:51.966Z,0.50
2022-08-05T14:45:18.995Z,0.40
2022-08-05T14:48:05.766Z,0.50
2022-08-05T14:50:35.988Z,0.60
2022-08-05T14:53:06.919Z,0.50
2022-08-05T14:55:39.342Z,0.47
2022-08-05T14:58:11.279Z,0.88
2022-08-05T15:00:58.813Z,0.45
2022-08-05T15:03:33.718Z,0.40
2022-08-05T15:06:07.707Z,0.35
2022-08-05T15:08:58.382Z,0.50
2022-08-05T15:11:51.955Z,0.50
2022-08-05T15:14:34.010Z,0.52
2022-08-05T15:17:01.618Z,0.40
2022-08-05T15:19:31.190Z,0.38
2022-08-05T15:22:00.912Z,0.50
2022-08-05T15:24:29.156Z,0.50
2022-08-05T15:26:57.134Z,0.50
2022-08-05T15:29:29.715Z,0.30
2022-08-05T15:32:02.428Z,0.47
2022-08-05T15:34:33.120Z,0.30
2022-08-05T15:37:06.181Z,0.30
2022-08-05T15:41:04.305Z,0.30
2022-08-05T15:42:56.641Z,0.57
2022-08-05T15:45:11.260Z,0.57
2022-08-05T15:47:43.490Z,0.50
2022-08-05T15:50:15.273Z,0.32
2022-08-05T15:52:53.322Z,0.20
2022-08-05T15:55:24.626Z,0.32
2022-08-05T15:58:16.463Z,0.50
2022-08-05T16:00:57.156Z,0.40
2022-08-05T16:03:32.801Z,0.52
2022-08-05T16:06:01.182Z,0.32
2022-08-05T16:08:30.448Z,0.43
2022-08-05T16:10:58.752Z,0.40
2022-08-05T16:13:34.451Z,0.38
2022-08-05T16:16:04.129Z,0.40
2022-08-05T16:18:35.239Z,0.50
2022-08-05T16:21:19.205Z,0.20
2022-08-05T16:23:53.942Z,0.40
2022-08-05T16:26:26.582Z,0.38
2022-08-05T16:28:54.712Z,0.30
2022-08-05T16:31:22.135Z,0.47
2022-08-05T16:33:49.690Z,0.28
2022-08-05T16:36:20.495Z,0.30
2022-08-05T16:38:54.745Z,0.50
2022-08-05T16:42:12.407Z,0.40
2022-08-05T16:44:11.838Z,0.40
2022-08-05T16:46:41.163Z,0.30
2022-08-05T16:49:09.950Z,0.40
2022-08-05T16:51:42.653Z,0.32
2022-08-05T16:54:23.947Z,0.30
2022-08-05T16:56:55.629Z,0.50
2022-08-05T16:59:22.916Z,0.20
2022-08-05T17:01:53.068Z,0.30
2022-08-05T17:04:27.800Z,0.40
2022-08-05T17:07:01.090Z,0.40
2022-08-05T17:09:39.030Z,0.52
2022-08-05T17:12:22.574Z,0.47
2022-08-05T17:14:50.015Z,0.80
2022-08-05T17:17:17.040Z,0.57
2022-08-05T17:19:46.766Z,1.00
2022-08-05T17:22:25.517Z,0.55
2022-08-05T17:24:57.542Z,0.30
2022-08-05T17:27:33.782Z,0.40
2022-08-05T17:30:04.135Z,0.50
2022-08-05T17:32:34.697Z,0.40
2022-08-05T17:35:02.467Z,0.40
2022-08-05T17:37:41.386Z,0.43
2022-08-05T17:40:17.220Z,0.30
2022-08-05T17:42:50.604Z,0.15
2022-08-05T17:45:21.873Z,0.40
2022-08-05T17:47:55.110Z,0.20
2022-08-05T17:50:30.029Z,0.47
2022-08-05T17:53:05.436Z,0.20
2022-08-05T17:55:38.407Z,0.50
2022-08-05T17:58:14.438Z,0.32
2022-08-05T18:00:47.438Z,0.38
2022-08-05T18:06:11.447Z,0.50
2022-08-05T18:08:44.910Z,0.75
2022-08-05T18:11:24.457Z,0.35
2022-08-05T18:14:07.091Z,0.32
2022-08-05T18:16:43.709Z,0.47
2022-08-05T18:19:18.517Z,0.28
2022-08-05T18:22:07.395Z,0.40
2022-08-05T18:24:37.849Z,0.50
2022-08-05T18:27:18.599Z,0.43
2022-08-05T18:29:53.487Z,0.35
2022-08-05T18:32:28.269Z,0.40
2022-08-05T18:34:57.801Z,0.43
2022-08-05T18:37:33.951Z,0.40
2022-08-05T18:40:31.598Z,0.50
2022-08-05T18:42:56.411Z,0.43
2022-08-05T18:45:24.004Z,0.57
2022-08-05T18:47:56.298Z,0.40
2022-08-05T18:50:46.470Z,0.70
2022-08-05T18:53:20.674Z,0.45
2022-08-05T18:55:51.617Z,0.55
2022-08-05T18:58:18.623Z,0.47
2022-08-05T19:00:54.081Z,0.50
2022-08-05T19:03:54.974Z,0.73
2022-08-05T19:06:18.644Z,0.57
2022-08-05T19:08:48.670Z,0.40
2022-08-05T19:11:16.067Z,0.30
2022-08-05T19:14:00.968Z,0.40
2022-08-05T19:16:36.875Z,0.70
2022-08-05T19:19:14.022Z,0.30
2022-08-05T19:21:40.898Z,0.57
2022-08-05T19:24:12.544Z,0.50
2022-08-05T19:26:54.066Z,0.60
2022-08-05T19:29:36.115Z,0.30
2022-08-05T19:32:15.023Z,0.55
2022-08-05T19:34:54.637Z,0.50
2022-08-05T19:37:35.002Z,0.70
2022-08-05T19:40:11.966Z,0.82
2022-08-05T19:42:39.090Z,0.50
2022-08-05T19:45:07.642Z,0.93
2022-08-05T19:47:37.630Z,1.02
2022-08-05T19:50:07.578Z,0.52
2022-08-05T19:52:34.810Z,0.70
2022-08-05T19:55:06.952Z,0.70
2022-08-05T19:58:19.592Z,0.50
2022-08-05T20:00:37.471Z,0.50
2022-08-05T20:03:08.772Z,0.40
2022-08-05T20:05:43.214Z,0.68
2022-08-05T20:08:19.804Z,0.40
2022-08-05T20:10:49.640Z,0.60
2022-08-05T20:13:17.695Z,0.50
2022-08-05T20:15:51.647Z,0.50
2022-08-05T20:18:32.599Z,0.50
2022-08-05T20:21:01.084Z,0.52
2022-08-05T20:23:39.472Z,0.80
2022-08-05T20:26:17.506Z,0.75
2022-08-05T20:28:54.015Z,0.60
2022-08-05T20:31:37.261Z,0.70
2022-08-05T20:34:10.840Z,0.70
2022-08-05T20:36:43.568Z,0.80
2022-08-05T20:39:13.541Z,0.43
2022-08-05T20:41:45.162Z,0.47
2022-08-05T20:44:30.121Z,0.68
2022-08-05T20:47:04.730Z,0.65
2022-08-05T20:49:39.342Z,0.68
2022-08-05T20:52:08.418Z,0.80
2022-08-05T20:54:59.441Z,0.70
2022-08-05T20:57:42.686Z,1.10
2022-08-05T21:00:41.157Z,0.52
2022-08-05T21:03:04.507Z,0.77
2022-08-05T21:05:48.034Z,0.82
2022-08-05T21:08:28.096Z,0.80
2022-08-05T21:11:12.266Z,1.20
2022-08-05T21:13:48.413Z,1.40
2022-08-05T21:16:30.134Z,0.98
2022-08-05T21:19:01.833Z,0.80
2022-08-05T21:21:44.617Z,0.80
2022-08-05T21:24:19.657Z,0.80
2022-08-05T21:26:53.503Z,0.65
2022-08-05T21:29:31.717Z,0.70
2022-08-05T21:32:03.216Z,1.10
2022-08-05T21:34:31.581Z,0.80
2022-08-05T21:37:00.160Z,0.60
2022-08-05T21:39:27.957Z,1.20
2022-08-05T21:42:01.632Z,0.50
2022-08-05T21:44:31.044Z,0.98
2022-08-05T21:46:59.692Z,0.80
2022-08-05T21:50:00.253Z,0.90
2022-08-05T21:52:16.658Z,0.73
2022-08-05T21:54:51.210Z,0.90
2022-08-05T21:57:31.533Z,0.60
2022-08-05T22:00:06.070Z,0.70
2022-08-05T22:02:41.705Z,1.00
2022-08-05T22:05:11.978Z,0.90
2022-08-05T22:07:58.205Z,0.75
2022-08-05T22:10:27.496Z,0.80
2022-08-05T22:13:09.239Z,0.57
2022-08-05T22:16:01.098Z,0.60
2022-08-05T22:18:34.045Z,0.80
2022-08-05T22:21:04.231Z,0.80
2022-08-05T22:24:02.076Z,0.80
2022-08-05T22:26:49.883Z,0.73
2022-08-05T22:29:18.965Z,0.70
2022-08-05T22:31:55.289Z,0.80
2022-08-05T22:34:29.058Z,0.93
2022-08-05T22:36:58.800Z,0.57
2022-08-05T22:39:32.730Z,0.75
2022-08-05T22:42:09.848Z,0.70
2022-08-05T22:44:42.700Z,0.60
2022-08-05T22:47:29.652Z,0.50
2022-08-05T22:50:20.400Z,0.77
2022-08-05T22:52:51.268Z,0.80
2022-08-05T22:55:21.158Z,0.90
2022-08-05T22:57:53.207Z,1.00
2022-08-05T23:00:22.044Z,0.88
2022-08-05T23:02:51.908Z,0.77
2022-08-05T23:05:22.247Z,0.75
2022-08-05T23:07:51.098Z,0.70
2022-08-05T23:10:20.935Z,0.75
2022-08-05T23:12:54.614Z,0.85
2022-08-05T23:15:29.494Z,0.80
2022-08-05T23:18:02.434Z,0.80
2022-08-05T23:20:37.457Z,0.85
2022-08-05T23:23:08.412Z,0.90
2022-08-05T23:25:52.909Z,0.90
2022-08-05T23:28:28.626Z,1.10
2022-08-05T23:31:16.231Z,0.90
2022-08-05T23:34:05.690Z,1.15
2022-08-05T23:36:38.498Z,1.02
2022-08-05T23:39:07.379Z,1.05
2022-08-05T23:41:37.503Z,1.00
2022-08-05T23:44:08.691Z,0.90
2022-08-05T23:46:37.398Z,1.30
2022-08-05T23:49:16.842Z,1.02
2022-08-05T23:52:08.218Z,0.95
2022-08-05T23:54:38.423Z,0.90
2022-08-05T23:57:07.391Z,1.00
2022-08-05T23:59:37.633Z,0.93
